createdAt,value
2023-05-11T00:00:28.046Z,15.90
2023-05-11T00:02:56.264Z,15.80
2023-05-11T00:05:24.542Z,15.90
2023-05-11T00:07:52.736Z,16.07
2023-05-11T00:10:21.123Z,17.33
2023-05-11T00:12:49.237Z,15.77
2023-05-11T00:15:18.683Z,16.77
2023-05-11T00:17:46.856Z,16.70
2023-05-11T00:20:15.150Z,17.13
2023-05-11T00:22:44.941Z,15.93
2023-05-11T00:25:13.200Z,16.30
2023-05-11T00:27:45.862Z,16.17
2023-05-11T00:30:16.216Z,16.93
2023-05-11T00:32:46.291Z,16.50
2023-05-11T00:35:14.578Z,18.03
2023-05-11T00:37:42.726Z,17.23
2023-05-11T00:40:11.384Z,17.87
2023-05-11T00:42:39.467Z,17.77
2023-05-11T00:45:08.660Z,17.87
2023-05-11T00:47:37.508Z,17.30
2023-05-11T00:50:08.520Z,17.73
2023-05-11T00:52:36.858Z,18.63
2023-05-11T00:55:05.269Z,17.83
2023-05-11T00:57:36.078Z,16.67
2023-05-11T01:00:04.497Z,18.17
2023-05-11T01:02:33.136Z,19.60
2023-05-11T01:05:01.596Z,19.53
2023-05-11T01:07:36.114Z,18.80
2023-05-11T01:10:15.187Z,18.03
2023-05-11T01:12:51.075Z,20.17
2023-05-11T01:15:25.565Z,19.13
2023-05-11T01:17:59.142Z,20.20
2023-05-11T01:20:30.518Z,21.07
2023-05-11T01:23:18.235Z,20.43
2023-05-11T01:26:04.877Z,21.03
2023-05-11T01:29:01.049Z,20.77
2023-05-11T01:31:33.256Z,20.50
2023-05-11T01:34:05.875Z,21.57
2023-05-11T01:36:37.320Z,21.73
2023-05-11T01:39:11.104Z,21.40
2023-05-11T01:41:41.322Z,19.93
2023-05-11T01:44:11.961Z,20.60
2023-05-11T01:46:41.392Z,22.13
2023-05-11T01:49:10.180Z,20.53
2023-05-11T01:51:39.716Z,20.57
2023-05-11T01:54:09.720Z,22.93
2023-05-11T01:56:44.439Z,19.60
2023-05-11T01:59:14.345Z,22.07
2023-05-11T02:01:44.251Z,20.80
2023-05-11T02:04:13.961Z,21.17
2023-05-11T02:06:44.322Z,21.60
2023-05-11T02:09:13.549Z,21.07
2023-05-11T02:11:43.517Z,20.43
2023-05-11T02:14:12.745Z,21.40
2023-05-11T02:16:41.960Z,19.80
2023-05-11T02:23:03.121Z,21.67
2023-05-11T02:25:32.078Z,21.90
2023-05-11T02:28:00.163Z,20.47
2023-05-11T02:30:30.602Z,20.63
2023-05-11T02:33:01.608Z,20.97
2023-05-11T02:35:31.233Z,19.40
2023-05-11T02:38:04.357Z,21.70
2023-05-11T02:40:34.917Z,20.47
2023-05-11T02:43:08.674Z,20.33
2023-05-11T02:45:38.736Z,21.30
2023-05-11T02:48:10.859Z,22.40
2023-05-11T02:50:40.946Z,22.20
2023-05-11T02:53:16.190Z,21.63
2023-05-11T02:55:44.335Z,21.50
2023-05-11T02:58:12.939Z,21.00
2023-05-11T03:06:11.784Z,21.13
2023-05-11T03:08:42.527Z,21.97
2023-05-11T03:12:11.192Z,21.87
2023-05-11T03:14:40.119Z,21.47
2023-05-11T03:17:09.368Z,20.77
2023-05-11T03:19:39.493Z,21.60
2023-05-11T03:22:08.234Z,23.00
2023-05-11T03:24:38.520Z,21.53
2023-05-11T03:27:09.391Z,22.53
2023-05-11T03:29:40.092Z,21.50
2023-05-11T03:32:08.241Z,20.63
2023-05-11T03:34:36.331Z,21.43
2023-05-11T03:37:06.900Z,20.27
2023-05-11T03:39:39.852Z,20.63
2023-05-11T03:42:08.936Z,21.43
2023-05-11T03:44:38.082Z,21.20
2023-05-11T03:47:07.852Z,22.50
2023-05-11T03:49:38.460Z,21.27
2023-05-11T03:52:07.402Z,21.03
2023-05-11T03:54:35.860Z,19.50
2023-05-11T03:57:05.810Z,20.87
2023-05-11T03:59:33.975Z,20.33
2023-05-11T04:02:02.086Z,20.27
2023-05-11T04:04:31.034Z,20.60
2023-05-11T04:06:59.808Z,21.00
2023-05-11T04:09:28.230Z,19.57
2023-05-11T04:11:56.304Z,19.80
2023-05-11T04:14:25.815Z,20.10
2023-05-11T04:16:53.960Z,19.67
2023-05-11T04:19:22.091Z,20.30
2023-05-11T04:21:50.155Z,22.03
2023-05-11T04:24:18.311Z,19.90
2023-05-11T04:26:46.397Z,20.83
2023-05-11T04:29:14.529Z,18.77
2023-05-11T04:31:44.222Z,18.07
2023-05-11T04:34:12.357Z,20.43
2023-05-11T04:36:40.494Z,18.03
2023-05-11T04:39:08.756Z,17.53
2023-05-11T04:41:36.890Z,19.10
2023-05-11T04:44:05.172Z,18.47
2023-05-11T04:46:33.337Z,17.73
2023-05-11T04:49:02.840Z,18.67
2023-05-11T04:51:31.017Z,17.70
2023-05-11T04:53:59.162Z,18.60
2023-05-11T04:56:27.277Z,18.33
2023-05-11T04:58:55.420Z,17.73
2023-05-11T05:01:23.583Z,17.43
2023-05-11T05:03:51.883Z,17.90
2023-05-11T05:06:21.654Z,17.73
2023-05-11T05:08:49.868Z,17.27
2023-05-11T05:11:18.027Z,16.73
2023-05-11T05:13:46.172Z,17.43
2023-05-11T05:16:14.439Z,17.23
2023-05-11T05:18:42.667Z,17.97
2023-05-11T05:21:10.848Z,17.20
2023-05-11T05:23:40.340Z,16.90
2023-05-11T05:26:08.496Z,18.73
2023-05-11T05:28:36.860Z,16.40
2023-05-11T05:31:05.046Z,17.10
2023-05-11T05:41:16.606Z,15.30
2023-05-11T05:43:44.729Z,16.08
2023-05-11T05:46:12.903Z,14.43
2023-05-11T05:48:41.751Z,14.15
2023-05-11T05:51:09.975Z,13.95
2023-05-11T05:53:38.511Z,14.70
2023-05-11T05:56:07.557Z,15.77
2023-05-11T05:58:36.996Z,14.77
2023-05-11T06:01:05.216Z,14.27
2023-05-11T06:03:33.523Z,13.90
2023-05-11T06:06:02.814Z,15.20
2023-05-11T06:08:31.015Z,13.10
2023-05-11T06:10:59.446Z,13.52
2023-05-11T06:13:27.576Z,15.00
2023-05-11T06:15:57.058Z,16.08
2023-05-11T06:18:25.148Z,15.40
2023-05-11T06:20:53.388Z,17.55
2023-05-11T06:23:21.668Z,17.50
2023-05-11T06:25:49.778Z,17.88
2023-05-11T06:28:17.916Z,17.40
2023-05-11T06:30:46.192Z,17.08
2023-05-11T06:33:15.644Z,17.58
2023-05-11T06:35:43.867Z,15.38
2023-05-11T06:38:11.956Z,16.38
2023-05-11T06:40:40.764Z,17.40
2023-05-11T06:43:09.246Z,16.05
2023-05-11T06:45:37.670Z,16.70
2023-05-11T06:48:06.735Z,17.27
2023-05-11T06:50:36.313Z,14.93
2023-05-11T06:53:04.452Z,15.57
2023-05-11T06:55:32.672Z,16.50
2023-05-11T06:58:00.794Z,16.08
2023-05-11T07:00:29.117Z,15.80
2023-05-11T07:02:57.373Z,14.10
2023-05-11T07:05:25.556Z,16.08
2023-05-11T07:07:55.050Z,15.75
2023-05-11T07:10:23.306Z,15.68
2023-05-11T07:12:51.633Z,15.82
2023-05-11T07:15:19.821Z,16.15
2023-05-11T07:17:48.345Z,17.13
2023-05-11T07:20:16.925Z,15.57
2023-05-11T07:22:45.189Z,17.13
2023-05-11T07:29:06.442Z,15.75
2023-05-11T07:31:35.541Z,15.65
2023-05-11T07:34:04.279Z,16.13
2023-05-11T07:36:33.104Z,16.83
2023-05-11T07:39:01.425Z,16.83
2023-05-11T07:41:31.007Z,16.20
2023-05-11T07:44:01.550Z,17.25
2023-05-11T07:46:31.147Z,16.08
2023-05-11T07:49:11.264Z,16.73
2023-05-11T07:51:45.336Z,15.85
2023-05-11T07:54:13.642Z,16.88
2023-05-11T07:56:41.950Z,15.50
2023-05-11T07:59:10.102Z,17.42
2023-05-11T08:01:39.703Z,15.63
2023-05-11T08:04:07.793Z,16.70
2023-05-11T08:06:36.119Z,20.60
2023-05-11T08:09:04.620Z,17.80
2023-05-11T08:11:32.772Z,17.00
2023-05-11T08:14:00.932Z,18.38
2023-05-11T08:16:29.141Z,16.98
2023-05-11T08:18:58.674Z,15.63
2023-05-11T08:21:26.848Z,17.05
2023-05-11T08:23:54.982Z,16.95
2023-05-11T08:26:23.088Z,16.88
2023-05-11T08:28:52.172Z,16.08
2023-05-11T08:31:20.551Z,16.67
2023-05-11T08:33:48.873Z,16.17
2023-05-11T08:36:18.714Z,15.05
2023-05-11T08:38:46.833Z,15.73
2023-05-11T08:41:15.190Z,15.82
2023-05-11T08:43:46.793Z,16.23
2023-05-11T08:46:19.171Z,16.15
2023-05-11T08:48:47.392Z,15.15
2023-05-11T08:51:15.826Z,16.02
2023-05-11T08:53:45.878Z,15.02
2023-05-11T08:56:16.491Z,16.27
2023-05-11T08:58:45.189Z,16.38
2023-05-11T09:01:13.588Z,14.68
2023-05-11T09:03:43.844Z,15.80
2023-05-11T09:06:12.880Z,16.28
2023-05-11T09:08:41.498Z,15.13
2023-05-11T09:11:11.923Z,16.13
2023-05-11T09:13:40.389Z,15.23
2023-05-11T09:16:19.601Z,15.73
2023-05-11T09:19:02.310Z,15.95
2023-05-11T09:21:32.194Z,15.60
2023-05-11T09:24:00.861Z,16.45
2023-05-11T09:26:30.400Z,14.43
2023-05-11T09:31:41.298Z,15.05
2023-05-11T09:34:17.367Z,15.55
2023-05-11T09:36:46.692Z,15.00
2023-05-11T09:39:15.822Z,15.45
2023-05-11T09:41:46.541Z,15.38
2023-05-11T09:44:16.413Z,14.85
2023-05-11T09:46:45.902Z,16.30
2023-05-11T09:49:14.278Z,16.15
2023-05-11T09:51:42.734Z,14.88
2023-05-11T09:54:19.111Z,14.05
2023-05-11T09:56:50.207Z,13.70
2023-05-11T09:59:37.107Z,15.93
2023-05-11T10:02:22.199Z,15.23
2023-05-11T10:04:50.981Z,15.38
2023-05-11T10:07:28.889Z,13.77
2023-05-11T10:09:58.611Z,14.95
2023-05-11T10:12:28.670Z,15.98
2023-05-11T10:14:59.939Z,14.65
2023-05-11T10:17:30.603Z,15.13
2023-05-11T10:19:59.878Z,15.68
2023-05-11T10:22:29.981Z,15.40
2023-05-11T10:24:59.091Z,14.98
2023-05-11T10:27:28.952Z,15.85
2023-05-11T10:29:59.367Z,14.43
2023-05-11T10:32:28.535Z,14.52
2023-05-11T10:34:58.050Z,13.00
2023-05-11T10:37:26.686Z,13.57
2023-05-11T10:39:54.941Z,14.20
2023-05-11T10:42:56.463Z,15.05
2023-05-11T10:45:27.887Z,13.38
2023-05-11T10:48:33.141Z,13.75
2023-05-11T10:51:21.832Z,14.77
2023-05-11T10:54:05.386Z,14.52
2023-05-11T10:57:04.231Z,14.38
2023-05-11T10:59:52.880Z,15.30
2023-05-11T11:02:21.157Z,15.02
2023-05-11T11:04:51.314Z,14.20
2023-05-11T11:07:20.962Z,14.27
2023-05-11T11:09:54.122Z,15.05
2023-05-11T11:12:23.634Z,15.35
2023-05-11T11:15:01.251Z,14.65
2023-05-11T11:17:31.927Z,14.77
2023-05-11T11:20:01.591Z,14.93
2023-05-11T11:22:47.402Z,15.20
2023-05-11T11:25:17.209Z,15.45
2023-05-11T11:27:59.470Z,16.60
2023-05-11T11:30:30.785Z,16.00
2023-05-11T11:33:33.442Z,15.45
2023-05-11T11:36:01.754Z,15.07
2023-05-11T11:38:30.648Z,16.90
2023-05-11T11:40:58.932Z,14.85
2023-05-11T11:43:28.394Z,15.23
2023-05-11T11:45:58.621Z,14.40
2023-05-11T11:48:35.418Z,15.65
2023-05-11T11:51:05.735Z,14.70
2023-05-11T11:54:07.170Z,14.63
2023-05-11T11:56:40.905Z,13.63
2023-05-11T11:59:13.836Z,15.07
2023-05-11T12:01:44.726Z,15.05
2023-05-11T12:04:40.703Z,17.27
2023-05-11T12:07:12.110Z,19.88
2023-05-11T12:09:41.946Z,19.92
2023-05-11T12:12:11.412Z,21.25
2023-05-11T12:14:42.077Z,20.77
2023-05-11T12:17:15.973Z,22.17
2023-05-11T12:19:45.566Z,20.80
2023-05-11T12:22:16.286Z,21.85
2023-05-11T12:24:45.052Z,21.35
2023-05-11T12:27:13.400Z,21.83
2023-05-11T12:29:42.375Z,22.48
2023-05-11T12:32:15.090Z,22.95
2023-05-11T12:34:43.368Z,21.60
2023-05-11T12:37:11.484Z,21.70
2023-05-11T12:39:39.899Z,14.95
2023-05-11T12:42:08.083Z,15.90
2023-05-11T12:44:36.389Z,17.90
2023-05-11T12:47:04.946Z,17.92
2023-05-11T12:49:34.621Z,16.05
2023-05-11T12:52:09.053Z,14.35
2023-05-11T12:54:38.913Z,14.88
2023-05-11T12:57:08.780Z,14.43
2023-05-11T12:59:38.569Z,13.40
2023-05-11T13:02:08.290Z,14.05
2023-05-11T13:04:38.489Z,14.23
2023-05-11T13:07:06.749Z,14.32
2023-05-11T13:09:35.259Z,15.32
2023-05-11T13:12:12.040Z,15.07
2023-05-11T13:14:40.585Z,16.70
2023-05-11T13:17:08.727Z,17.98
2023-05-11T13:19:39.593Z,19.05
2023-05-11T13:22:08.209Z,18.13
2023-05-11T13:44:29.706Z,15.32
2023-05-11T13:46:57.863Z,15.25
2023-05-11T13:49:25.987Z,18.17
2023-05-11T13:51:55.459Z,19.08
2023-05-11T13:54:23.711Z,18.48
2023-05-11T13:56:52.174Z,18.08
2023-05-11T13:59:20.887Z,16.63
2023-05-11T14:01:50.444Z,15.60
2023-05-11T14:04:19.648Z,16.40
2023-05-11T14:06:47.851Z,13.95
2023-05-11T14:09:15.988Z,14.43
2023-05-11T14:11:44.233Z,13.93
2023-05-11T14:14:12.470Z,12.70
2023-05-11T14:16:40.567Z,12.68
2023-05-11T14:19:10.657Z,12.18
2023-05-11T14:21:39.451Z,11.25
2023-05-11T14:24:12.583Z,12.27
2023-05-11T14:26:41.398Z,9.88
2023-05-11T14:29:09.508Z,9.27
2023-05-11T14:31:38.643Z,8.63
2023-05-11T14:34:07.100Z,10.10
2023-05-11T14:36:37.305Z,11.15
2023-05-11T14:39:05.646Z,12.77
2023-05-11T14:41:33.840Z,11.95
2023-05-11T14:44:01.959Z,11.65
2023-05-11T14:46:30.304Z,11.45
2023-05-11T14:48:58.544Z,11.25
2023-05-11T14:51:26.758Z,10.40
2023-05-11T14:53:56.310Z,10.65
2023-05-11T14:56:24.500Z,10.55
2023-05-11T14:58:52.795Z,9.02
2023-05-11T15:01:20.933Z,8.50
2023-05-11T15:03:49.135Z,8.20
2023-05-11T15:06:21.455Z,9.75
2023-05-11T15:08:49.955Z,10.00
2023-05-11T15:11:19.885Z,9.13
2023-05-11T15:13:48.549Z,8.48
2023-05-11T15:16:16.929Z,7.10
2023-05-11T15:18:45.102Z,7.57
2023-05-11T15:21:13.354Z,6.28
2023-05-11T15:23:41.547Z,5.28
2023-05-11T15:26:10.041Z,5.45
2023-05-11T15:28:39.766Z,6.05
2023-05-11T15:31:07.915Z,4.53
2023-05-11T15:33:36.080Z,4.05
2023-05-11T15:36:04.262Z,3.72
2023-05-11T15:38:32.355Z,3.72
2023-05-11T15:41:00.484Z,4.18
2023-05-11T15:43:28.597Z,4.05
2023-05-11T15:45:58.548Z,3.65
2023-05-11T15:48:26.959Z,4.32
2023-05-11T15:50:55.099Z,3.50
2023-05-11T15:53:23.316Z,4.68
2023-05-11T15:55:53.562Z,5.88
2023-05-11T15:58:21.816Z,6.93
2023-05-11T16:00:50.059Z,4.57
2023-05-11T16:03:20.124Z,5.63
2023-05-11T16:05:48.483Z,5.80
2023-05-11T16:08:17.147Z,7.28
2023-05-11T16:10:45.357Z,8.95
2023-05-11T16:13:13.456Z,8.00
2023-05-11T16:35:34.808Z,3.05
2023-05-11T16:38:05.622Z,3.28
2023-05-11T16:40:33.834Z,3.33
2023-05-11T16:43:01.940Z,3.83
2023-05-11T16:45:30.122Z,3.57
2023-05-11T16:47:58.308Z,3.83
2023-05-11T16:50:26.501Z,3.63
2023-05-11T16:52:56.032Z,3.20
2023-05-11T16:55:24.120Z,3.13
2023-05-11T16:57:52.893Z,3.30
2023-05-11T17:00:21.502Z,3.43
2023-05-11T17:02:50.007Z,3.77
2023-05-11T17:05:19.096Z,3.38
2023-05-11T17:07:47.257Z,3.20
2023-05-11T17:10:17.488Z,3.80
2023-05-11T17:12:45.838Z,3.27
2023-05-11T17:15:13.971Z,3.37
2023-05-11T17:17:42.183Z,3.57
2023-05-11T17:20:11.334Z,3.43
2023-05-11T17:22:39.609Z,3.57
2023-05-11T17:25:08.812Z,3.30
2023-05-11T17:27:38.345Z,4.20
2023-05-11T17:30:07.541Z,3.57
2023-05-11T17:32:35.847Z,4.30
2023-05-11T17:35:04.644Z,3.87
2023-05-11T17:37:33.286Z,4.13
2023-05-11T17:40:01.787Z,4.00
2023-05-11T17:42:29.901Z,4.30
2023-05-11T17:44:59.416Z,3.97
2023-05-11T17:47:27.616Z,4.00
2023-05-11T17:49:55.927Z,3.97
2023-05-11T17:52:25.097Z,4.40
2023-05-11T17:54:53.305Z,4.40
2023-05-11T17:57:23.345Z,4.40
2023-05-11T17:59:51.463Z,4.47
2023-05-11T18:02:20.990Z,4.10
2023-05-11T18:04:49.135Z,3.87
2023-05-11T18:07:17.287Z,3.93
2023-05-11T18:09:45.570Z,3.90
2023-05-11T18:12:13.711Z,4.23
2023-05-11T18:14:41.895Z,4.03
2023-05-11T18:17:10.045Z,4.40
2023-05-11T18:19:39.695Z,4.03
2023-05-11T18:22:07.897Z,4.17
2023-05-11T18:24:36.155Z,3.83
2023-05-11T18:27:04.340Z,4.17
2023-05-11T18:29:32.509Z,3.93
2023-05-11T18:32:00.964Z,3.50
2023-05-11T18:34:29.123Z,3.47
2023-05-11T18:36:58.767Z,3.53
2023-05-11T18:39:26.914Z,3.73
2023-05-11T18:41:55.058Z,3.40
2023-05-11T18:44:23.237Z,3.00
2023-05-11T18:46:51.344Z,3.57
2023-05-11T18:57:02.576Z,3.90
2023-05-11T18:59:30.743Z,4.10
2023-05-11T19:01:59.151Z,3.60
2023-05-11T19:04:27.465Z,4.20
2023-05-11T19:06:55.703Z,4.30
2023-05-11T19:09:24.128Z,5.50
2023-05-11T19:11:52.294Z,3.83
2023-05-11T19:14:21.770Z,4.07
2023-05-11T19:16:49.916Z,4.70
2023-05-11T19:19:18.108Z,4.47
2023-05-11T19:21:46.263Z,4.43
2023-05-11T19:24:14.377Z,4.27
2023-05-11T19:26:47.241Z,5.17
2023-05-11T19:29:22.755Z,5.30
2023-05-11T19:31:51.282Z,5.40
2023-05-11T19:34:19.348Z,5.27
2023-05-11T19:36:47.437Z,5.40
2023-05-11T19:39:16.242Z,5.87
2023-05-11T19:41:44.460Z,6.00
2023-05-11T19:44:12.623Z,6.50
2023-05-11T19:46:46.424Z,5.50
2023-05-11T19:49:15.472Z,6.10
2023-05-11T19:51:44.399Z,6.13
2023-05-11T19:54:13.077Z,6.10
2023-05-11T19:56:41.704Z,6.20
2023-05-11T19:59:09.876Z,6.10
2023-05-11T20:01:38.091Z,5.97
2023-05-11T20:04:07.693Z,6.27
2023-05-11T20:06:35.957Z,6.27
2023-05-11T20:09:05.185Z,6.43
2023-05-11T20:11:33.282Z,7.00
2023-05-11T20:14:02.090Z,7.00
2023-05-11T20:16:31.511Z,6.80
2023-05-11T20:18:59.889Z,7.10
2023-05-11T20:21:29.586Z,8.17
2023-05-11T20:23:57.751Z,8.20
2023-05-11T20:26:25.884Z,8.53
2023-05-11T20:28:54.051Z,7.77
2023-05-11T20:31:22.484Z,8.57
2023-05-11T20:36:21.579Z,9.17
2023-05-11T20:38:53.353Z,8.67
2023-05-11T20:41:23.249Z,8.83
2023-05-11T20:43:52.052Z,8.63
2023-05-11T20:46:20.699Z,8.43
2023-05-11T20:48:51.743Z,7.63
2023-05-11T20:51:23.190Z,8.03
2023-05-11T20:53:53.738Z,8.37
2023-05-11T20:56:22.010Z,8.10
2023-05-11T20:58:50.115Z,7.70
2023-05-11T21:01:18.391Z,8.27
2023-05-11T21:03:46.688Z,7.73
2023-05-11T21:06:14.969Z,7.77
2023-05-11T21:08:43.096Z,7.77
2023-05-11T21:11:12.647Z,8.33
2023-05-11T21:13:40.977Z,8.50
2023-05-11T21:16:09.297Z,8.67
2023-05-11T21:18:37.384Z,7.60
2023-05-11T21:21:05.772Z,8.90
2023-05-11T21:23:34.245Z,8.00
2023-05-11T21:26:03.238Z,7.63
2023-05-11T21:28:34.644Z,7.90
2023-05-11T21:31:02.763Z,7.27
2023-05-11T21:33:30.816Z,6.90
2023-05-11T21:35:59.456Z,8.03
2023-05-11T21:38:27.595Z,7.73
2023-05-11T21:40:56.316Z,7.80
2023-05-11T21:43:24.544Z,7.47
2023-05-11T21:45:54.055Z,7.07
2023-05-11T21:48:22.516Z,8.60
2023-05-11T21:50:54.340Z,8.40
2023-05-11T21:53:23.128Z,8.60
2023-05-11T21:55:51.372Z,7.10
2023-05-11T21:58:19.507Z,8.60
2023-05-11T22:00:47.636Z,7.50
2023-05-11T22:03:17.224Z,7.93
2023-05-11T22:05:45.433Z,7.13
2023-05-11T22:08:15.749Z,7.27
2023-05-11T22:10:44.197Z,6.63
2023-05-11T22:13:12.357Z,7.23
2023-05-11T22:15:40.483Z,6.00
2023-05-11T22:18:08.768Z,6.63
2023-05-11T22:20:38.311Z,6.20
2023-05-11T22:23:06.413Z,6.33
2023-05-11T22:25:34.481Z,6.23
2023-05-11T22:28:02.604Z,6.30
2023-05-11T22:30:30.744Z,6.50
2023-05-11T22:32:58.880Z,5.20
2023-05-11T22:35:27.239Z,4.90
2023-05-11T22:37:56.752Z,5.30
2023-05-11T22:40:24.927Z,5.07
2023-05-11T22:42:53.012Z,5.30
2023-05-11T22:45:21.167Z,5.20
2023-05-11T22:47:49.282Z,4.50
2023-05-11T22:50:17.727Z,4.97
2023-05-11T22:52:47.262Z,4.37
2023-05-11T22:55:16.880Z,5.30
2023-05-11T22:57:45.023Z,4.33
2023-05-11T23:00:14.124Z,4.60
2023-05-11T23:02:43.015Z,4.53
2023-05-11T23:05:11.597Z,4.90
2023-05-11T23:07:39.774Z,4.27
2023-05-11T23:10:08.901Z,4.77
2023-05-11T23:12:38.381Z,4.70
2023-05-11T23:15:07.820Z,5.20
2023-05-11T23:17:36.146Z,5.60
2023-05-11T23:20:04.956Z,6.07
2023-05-11T23:22:33.034Z,6.13
2023-05-11T23:25:02.047Z,6.87
2023-05-11T23:27:30.163Z,6.43
2023-05-11T23:29:59.624Z,6.30
2023-05-11T23:32:27.924Z,6.73
2023-05-11T23:34:56.006Z,6.60
2023-05-11T23:37:24.105Z,7.10
2023-05-11T23:39:52.708Z,7.57
2023-05-11T23:42:20.856Z,7.60
2023-05-11T23:44:49.252Z,8.23
2023-05-11T23:47:18.776Z,7.07
2023-05-11T23:49:46.963Z,7.83
2023-05-11T23:52:15.093Z,7.60
2023-05-11T23:54:43.133Z,7.80
2023-05-11T23:57:18.529Z,8.60
2023-05-11T23:59:46.612Z,7.60
